createdAt,value
2017-11-23T00:01:18.809Z,16.75
2017-11-23T00:03:45.464Z,15.52
2017-11-23T00:06:12.880Z,13.85
2017-11-23T00:08:40.548Z,16.10
2017-11-23T00:11:08.178Z,16.65
2017-11-23T00:13:35.760Z,16.50
2017-11-23T00:16:02.464Z,16.85
2017-11-23T00:18:29.133Z,14.68
2017-11-23T00:20:55.794Z,15.88
2017-11-23T00:23:22.481Z,16.58
2017-11-23T00:25:49.172Z,16.35
2017-11-23T00:28:15.823Z,15.27
2017-11-23T00:30:42.597Z,15.68
2017-11-23T00:33:10.008Z,18.35
2017-11-23T00:35:36.688Z,17.70
2017-11-23T00:38:03.384Z,16.85
2017-11-23T00:40:30.836Z,15.68
2017-11-23T00:42:58.784Z,15.00
2017-11-23T00:45:25.459Z,14.73
2017-11-23T00:47:52.163Z,17.10
2017-11-23T00:50:19.943Z,14.55
2017-11-23T00:52:46.629Z,15.52
2017-11-23T00:55:14.368Z,18.92
2017-11-23T00:57:41.042Z,17.87
2017-11-23T01:00:07.749Z,16.27
2017-11-23T01:02:34.426Z,16.90
2017-11-23T01:05:02.147Z,15.00
2017-11-23T01:07:29.891Z,15.68
2017-11-23T01:09:56.566Z,18.48
2017-11-23T01:12:23.325Z,15.68
2017-11-23T01:14:50.738Z,16.70
2017-11-23T01:17:17.398Z,17.87
2017-11-23T01:19:44.151Z,15.00
2017-11-23T01:22:16.964Z,14.85
2017-11-23T01:24:44.518Z,15.88
2017-11-23T01:27:12.851Z,14.10
2017-11-23T01:29:39.519Z,15.88
2017-11-23T01:32:06.201Z,13.48
2017-11-23T01:34:33.653Z,14.55
2017-11-23T01:37:06.955Z,15.00
2017-11-23T01:39:34.396Z,15.48
2017-11-23T01:42:01.917Z,16.35
2017-11-23T01:44:28.630Z,16.85
2017-11-23T01:46:55.332Z,18.05
2017-11-23T01:49:21.995Z,15.18
2017-11-23T01:51:48.671Z,13.85
2017-11-23T01:54:15.455Z,14.48
2017-11-23T01:56:42.871Z,13.82
2017-11-23T01:59:09.715Z,15.82
2017-11-23T02:01:36.396Z,13.95
2017-11-23T02:04:03.108Z,13.98
2017-11-23T02:06:30.615Z,14.05
2017-11-23T02:08:57.356Z,12.48
2017-11-23T02:11:24.151Z,14.20
2017-11-23T02:13:51.670Z,13.27
2017-11-23T02:16:18.424Z,12.95
2017-11-23T02:18:45.177Z,13.43
2017-11-23T02:21:13.040Z,13.45
2017-11-23T02:23:40.178Z,14.30
2017-11-23T02:26:06.969Z,11.95
2017-11-23T02:28:34.515Z,12.63
2017-11-23T02:31:02.039Z,13.13
2017-11-23T02:33:28.924Z,13.38
2017-11-23T02:35:56.469Z,12.20
2017-11-23T02:38:24.139Z,13.25
2017-11-23T02:40:51.072Z,12.00
2017-11-23T02:43:17.877Z,13.15
2017-11-23T02:45:44.974Z,14.15
2017-11-23T02:48:11.747Z,13.60
2017-11-23T02:50:40.189Z,14.40
2017-11-23T02:53:06.966Z,13.38
2017-11-23T02:55:33.776Z,12.13
2017-11-23T02:58:01.626Z,12.63
2017-11-23T03:00:28.314Z,13.68
2017-11-23T03:02:55.027Z,12.50
2017-11-23T03:05:21.766Z,13.10
2017-11-23T03:07:49.109Z,11.05
2017-11-23T03:10:15.882Z,11.55
2017-11-23T03:12:42.570Z,12.98
2017-11-23T03:15:10.037Z,11.80
2017-11-23T03:17:37.373Z,12.48
2017-11-23T03:20:04.445Z,11.18
2017-11-23T03:22:31.554Z,17.67
2017-11-23T03:24:59.108Z,15.30
2017-11-23T03:27:41.603Z,16.73
2017-11-23T03:30:09.267Z,21.42
2017-11-23T03:32:36.065Z,23.95
2017-11-23T03:35:02.753Z,20.23
2017-11-23T03:37:30.315Z,23.67
2017-11-23T03:39:56.976Z,23.55
2017-11-23T03:42:23.818Z,24.67
2017-11-23T03:44:50.640Z,22.50
2017-11-23T03:47:17.968Z,24.12
2017-11-23T03:49:44.681Z,22.80
2017-11-23T03:52:11.356Z,22.67
2017-11-23T03:54:38.031Z,21.65
2017-11-23T03:57:04.747Z,24.15
2017-11-23T03:59:31.453Z,22.87
2017-11-23T04:01:59.074Z,21.90
2017-11-23T04:04:26.507Z,20.23
2017-11-23T04:06:53.179Z,21.20
2017-11-23T04:09:19.913Z,20.35
2017-11-23T04:11:47.445Z,19.15
2017-11-23T04:14:14.888Z,21.60
2017-11-23T04:16:41.574Z,19.58
2017-11-23T04:19:09.075Z,20.25
2017-11-23T04:21:35.746Z,19.37
2017-11-23T04:24:03.257Z,19.23
2017-11-23T04:26:32.673Z,20.05
2017-11-23T04:29:00.141Z,20.52
2017-11-23T04:31:26.793Z,20.10
2017-11-23T04:33:53.382Z,20.45
2017-11-23T04:36:20.000Z,19.35
2017-11-23T04:38:47.245Z,22.95
2017-11-23T04:41:13.902Z,18.87
2017-11-23T04:43:40.686Z,20.20
2017-11-23T04:46:08.118Z,20.23
2017-11-23T04:48:34.824Z,27.92
2017-11-23T04:51:01.488Z,22.00
2017-11-23T04:53:28.199Z,19.75
2017-11-23T04:55:54.840Z,20.25
2017-11-23T04:58:21.513Z,21.48
2017-11-23T05:00:48.237Z,19.55
2017-11-23T05:03:14.973Z,19.10
2017-11-23T05:05:41.656Z,18.30
2017-11-23T05:08:08.775Z,20.88
2017-11-23T05:10:35.589Z,20.25
2017-11-23T05:13:03.168Z,19.77
2017-11-23T05:15:29.918Z,18.08
2017-11-23T05:17:57.138Z,19.85
2017-11-23T05:20:23.895Z,17.87
2017-11-23T05:22:50.588Z,17.95
2017-11-23T05:27:55.735Z,21.02
2017-11-23T05:30:22.453Z,18.20
2017-11-23T05:32:49.859Z,17.27
2017-11-23T05:35:16.525Z,17.67
2017-11-23T05:37:43.212Z,18.00
2017-11-23T05:40:10.150Z,19.55
2017-11-23T05:42:37.637Z,18.35
2017-11-23T05:45:04.319Z,18.00
2017-11-23T05:47:31.013Z,20.50
2017-11-23T05:49:57.703Z,18.45
2017-11-23T05:52:24.392Z,19.62
2017-11-23T05:54:51.085Z,16.60
2017-11-23T05:57:17.782Z,17.80
2017-11-23T05:59:44.506Z,17.33
2017-11-23T06:02:11.940Z,17.40
2017-11-23T06:04:38.640Z,16.17
2017-11-23T06:07:05.312Z,15.05
2017-11-23T06:09:31.995Z,14.20
2017-11-23T06:11:59.504Z,14.20
2017-11-23T06:14:26.178Z,14.85
2017-11-23T06:16:52.939Z,15.45
2017-11-23T06:19:20.367Z,17.85
2017-11-23T06:21:47.042Z,15.52
2017-11-23T06:24:14.490Z,13.98
2017-11-23T06:26:41.194Z,14.85
2017-11-23T06:29:07.843Z,15.25
2017-11-23T06:31:34.538Z,17.20
2017-11-23T06:34:01.960Z,16.45
2017-11-23T06:36:29.733Z,15.48
2017-11-23T06:38:56.389Z,13.40
2017-11-23T06:41:23.083Z,11.60
2017-11-23T06:43:49.762Z,11.32
2017-11-23T06:46:16.466Z,10.90
2017-11-23T06:48:43.144Z,11.30
2017-11-23T06:51:10.560Z,10.83
2017-11-23T06:53:37.233Z,11.73
2017-11-23T06:56:03.925Z,11.40
2017-11-23T06:58:31.323Z,11.00
2017-11-23T07:00:58.052Z,11.17
2017-11-23T07:03:24.808Z,11.60
2017-11-23T07:05:51.469Z,12.27
2017-11-23T07:08:18.147Z,11.70
2017-11-23T07:10:44.880Z,12.63
2017-11-23T07:13:11.562Z,14.00
2017-11-23T07:15:38.332Z,13.07
2017-11-23T07:18:05.060Z,14.90
2017-11-23T07:20:31.737Z,15.70
2017-11-23T07:22:58.395Z,13.80
2017-11-23T07:25:25.090Z,15.43
2017-11-23T07:27:51.789Z,14.00
2017-11-23T07:30:18.479Z,14.00
2017-11-23T07:32:45.171Z,15.23
2017-11-23T07:35:11.867Z,16.37
2017-11-23T07:37:38.587Z,17.30
2017-11-23T07:40:05.985Z,16.27
2017-11-23T07:42:32.658Z,16.27
2017-11-23T07:44:59.376Z,17.10
2017-11-23T07:47:26.021Z,17.70
2017-11-23T07:49:52.704Z,17.40
2017-11-23T07:52:20.141Z,18.83
2017-11-23T07:54:46.847Z,17.23
2017-11-23T07:57:13.557Z,18.10
2017-11-23T07:59:41.058Z,19.67
2017-11-23T08:02:07.735Z,18.60
2017-11-23T08:04:34.370Z,16.80
2017-11-23T08:07:01.083Z,14.73
2017-11-23T08:09:27.751Z,11.20
2017-11-23T08:11:54.448Z,9.90
2017-11-23T08:14:21.921Z,8.37
2017-11-23T08:16:48.667Z,9.70
2017-11-23T08:19:15.380Z,8.30
2017-11-23T08:21:42.837Z,7.87
2017-11-23T08:24:09.538Z,17.37
2017-11-23T08:26:36.207Z,18.30
2017-11-23T08:29:02.927Z,20.27
2017-11-23T08:31:29.590Z,21.23
2017-11-23T08:33:56.278Z,20.63
2017-11-23T08:36:22.960Z,20.70
2017-11-23T08:38:49.697Z,20.40
2017-11-23T08:41:16.468Z,22.80
2017-11-23T08:43:43.124Z,20.83
2017-11-23T08:46:09.818Z,20.73
2017-11-23T08:48:36.559Z,20.80
2017-11-23T08:51:03.247Z,21.30
2017-11-23T08:53:29.945Z,20.70
2017-11-23T08:55:56.652Z,22.17
2017-11-23T08:58:25.002Z,21.37
2017-11-23T09:00:51.691Z,19.57
2017-11-23T09:03:19.195Z,20.30
2017-11-23T09:05:45.875Z,19.50
2017-11-23T09:08:13.309Z,21.07
2017-11-23T09:10:39.954Z,20.33
2017-11-23T09:13:08.720Z,20.03
2017-11-23T09:15:35.468Z,20.90
2017-11-23T09:18:02.162Z,22.73
2017-11-23T09:20:29.595Z,20.77
2017-11-23T09:22:56.274Z,18.90
2017-11-23T09:25:23.717Z,18.33
2017-11-23T09:27:50.460Z,17.80
2017-11-23T09:30:17.201Z,18.50
2017-11-23T09:32:43.925Z,17.10
2017-11-23T09:35:10.784Z,17.03
2017-11-23T09:37:37.479Z,16.67
2017-11-23T09:40:04.213Z,17.10
2017-11-23T09:42:30.987Z,20.23
2017-11-23T09:44:57.691Z,19.47
2017-11-23T09:47:25.187Z,17.87
2017-11-23T09:49:51.988Z,17.27
2017-11-23T09:52:19.507Z,17.10
2017-11-23T09:54:46.219Z,17.20
2017-11-23T09:57:12.947Z,17.47
2017-11-23T09:59:40.383Z,17.27
2017-11-23T10:02:07.071Z,17.33
2017-11-23T10:04:33.776Z,18.60
2017-11-23T10:07:00.432Z,19.00
2017-11-23T10:09:27.910Z,17.37
2017-11-23T10:11:54.620Z,17.20
2017-11-23T10:14:27.376Z,15.60
2017-11-23T10:16:54.058Z,17.30
2017-11-23T10:19:21.530Z,17.17
2017-11-23T10:21:48.994Z,17.70
2017-11-23T10:24:16.466Z,17.67
2017-11-23T10:26:43.167Z,17.33
2017-11-23T10:29:09.890Z,17.30
2017-11-23T10:31:36.571Z,16.90
2017-11-23T10:34:04.048Z,16.30
2017-11-23T10:36:31.494Z,15.20
2017-11-23T10:38:58.906Z,16.17
2017-11-23T10:41:25.594Z,15.20
2017-11-23T10:43:53.026Z,16.13
2017-11-23T10:46:19.710Z,14.90
2017-11-23T10:48:47.224Z,15.37
2017-11-23T10:51:13.945Z,14.70
2017-11-23T10:53:40.637Z,15.70
2017-11-23T10:56:07.350Z,17.03
2017-11-23T10:58:34.059Z,15.00
2017-11-23T11:01:00.794Z,14.43
2017-11-23T11:03:28.243Z,15.27
2017-11-23T11:05:55.702Z,15.37
2017-11-23T11:08:22.452Z,15.43
2017-11-23T11:10:49.950Z,14.77
2017-11-23T11:13:16.611Z,14.33
2017-11-23T11:15:43.328Z,15.13
2017-11-23T11:18:10.039Z,13.60
2017-11-23T11:20:37.492Z,14.20
2017-11-23T11:23:04.165Z,13.60
2017-11-23T11:25:30.866Z,12.60
2017-11-23T11:27:57.599Z,12.77
2017-11-23T11:30:24.311Z,12.83
2017-11-23T11:32:51.146Z,13.30
2017-11-23T11:35:17.808Z,12.27
2017-11-23T11:37:44.502Z,13.13
2017-11-23T11:40:11.244Z,13.70
2017-11-23T11:42:37.983Z,14.00
2017-11-23T11:45:04.738Z,14.50
2017-11-23T11:47:32.197Z,14.27
2017-11-23T11:49:59.597Z,13.83
2017-11-23T11:52:26.279Z,13.27
2017-11-23T11:54:52.983Z,13.90
2017-11-23T11:57:19.626Z,13.10
2017-11-23T11:59:46.297Z,13.83
2017-11-23T12:02:13.140Z,13.77
2017-11-23T12:04:39.833Z,13.37
2017-11-23T12:07:06.505Z,14.07
2017-11-23T12:09:33.193Z,13.63
2017-11-23T12:11:59.938Z,11.50
2017-11-23T12:14:26.763Z,11.73
2017-11-23T12:20:18.620Z,11.83
2017-11-23T12:23:11.032Z,11.90
2017-11-23T12:29:06.823Z,11.60
2017-11-23T12:31:33.539Z,9.70
2017-11-23T12:34:00.227Z,10.57
2017-11-23T12:36:26.959Z,9.47
2017-11-23T12:38:53.628Z,9.83
2017-11-23T12:41:21.069Z,10.67
2017-11-23T12:43:47.784Z,9.83
2017-11-23T12:46:15.292Z,10.00
2017-11-23T12:48:42.857Z,8.57
2017-11-23T12:51:10.565Z,7.50
2017-11-23T12:53:37.249Z,8.37
2017-11-23T12:56:04.915Z,9.27
2017-11-23T12:58:31.638Z,8.20
2017-11-23T13:00:58.353Z,8.63
2017-11-23T13:03:25.043Z,7.37
2017-11-23T13:05:51.724Z,8.73
2017-11-23T13:08:19.133Z,8.07
2017-11-23T13:10:45.827Z,8.60
2017-11-23T13:13:13.300Z,8.07
2017-11-23T13:15:39.976Z,8.53
2017-11-23T13:18:06.668Z,8.80
2017-11-23T13:20:34.142Z,7.53
2017-11-23T13:23:00.814Z,7.70
2017-11-23T13:25:27.623Z,7.53
2017-11-23T13:27:55.056Z,8.43
2017-11-23T13:30:21.967Z,7.63
2017-11-23T13:32:48.678Z,8.10
2017-11-23T13:35:16.090Z,8.90
2017-11-23T13:37:42.825Z,8.80
2017-11-23T13:40:09.494Z,7.37
2017-11-23T13:42:36.186Z,7.93
2017-11-23T13:45:03.006Z,9.10
2017-11-23T13:47:29.783Z,8.30
2017-11-23T13:49:56.599Z,7.67
2017-11-23T13:52:23.349Z,8.30
2017-11-23T13:54:50.770Z,8.13
2017-11-23T13:57:17.575Z,7.93
2017-11-23T13:59:44.303Z,7.73
2017-11-23T14:02:10.997Z,8.00
2017-11-23T14:04:37.899Z,7.17
2017-11-23T14:07:04.674Z,7.83
2017-11-23T14:09:31.385Z,6.83
2017-11-23T14:11:58.101Z,7.30
2017-11-23T14:14:25.591Z,6.37
2017-11-23T14:16:52.300Z,7.63
2017-11-23T14:19:18.980Z,6.57
2017-11-23T14:21:45.708Z,7.40
2017-11-23T14:24:12.396Z,8.00
2017-11-23T14:26:39.101Z,6.33
2017-11-23T14:29:05.896Z,7.97
2017-11-23T14:31:32.627Z,8.60
2017-11-23T14:34:00.168Z,9.13
2017-11-23T14:36:27.147Z,8.33
2017-11-23T14:38:53.817Z,6.80
2017-11-23T14:41:20.523Z,7.27
2017-11-23T14:43:47.183Z,7.70
2017-11-23T14:46:13.951Z,8.13
2017-11-23T14:48:40.644Z,7.53
2017-11-23T14:51:07.345Z,8.40
2017-11-23T14:53:34.796Z,7.50
2017-11-23T14:56:01.490Z,10.20
2017-11-23T14:58:28.240Z,8.70
2017-11-23T15:00:54.896Z,8.23
2017-11-23T15:03:21.616Z,8.67
2017-11-23T15:05:48.378Z,8.93
2017-11-23T15:08:15.076Z,9.37
2017-11-23T15:10:42.534Z,9.03
2017-11-23T15:13:09.986Z,9.07
2017-11-23T15:15:36.684Z,9.97
2017-11-23T15:18:03.409Z,10.10
2017-11-23T15:20:31.175Z,10.63
2017-11-23T15:22:57.891Z,10.37
2017-11-23T15:25:25.283Z,9.67
2017-11-23T15:27:51.988Z,10.30
2017-11-23T15:30:18.726Z,10.63
2017-11-23T15:32:45.525Z,12.40
2017-11-23T15:35:12.188Z,10.93
2017-11-23T15:37:38.892Z,10.43
2017-11-23T15:40:11.012Z,11.37
2017-11-23T15:42:37.700Z,12.07
2017-11-23T15:45:05.125Z,13.43
2017-11-23T15:47:32.044Z,10.90
2017-11-23T15:49:59.011Z,12.83
2017-11-23T15:52:25.668Z,13.80
2017-11-23T15:54:52.704Z,15.33
2017-11-23T15:57:19.396Z,18.77
2017-11-23T15:59:46.100Z,15.10
2017-11-23T16:02:12.822Z,12.90
2017-11-23T16:04:39.487Z,13.30
2017-11-23T16:07:06.205Z,12.20
2017-11-23T16:09:32.909Z,12.67
2017-11-23T16:12:00.318Z,15.43
2017-11-23T16:14:27.017Z,12.60
2017-11-23T16:16:53.711Z,14.80
2017-11-23T16:19:20.435Z,13.53
2017-11-23T16:21:47.152Z,14.47
2017-11-23T16:24:13.906Z,12.63
2017-11-23T16:26:40.577Z,13.20
2017-11-23T16:29:08.275Z,13.23
2017-11-23T16:31:34.994Z,12.43
2017-11-23T16:34:01.736Z,13.10
2017-11-23T16:36:28.495Z,13.37
2017-11-23T16:38:56.280Z,13.10
2017-11-23T16:41:29.612Z,17.67
2017-11-23T16:44:03.011Z,21.30
2017-11-23T16:46:35.700Z,19.47
2017-11-23T16:49:08.343Z,15.77
2017-11-23T16:54:37.783Z,14.23
2017-11-23T16:57:11.325Z,15.70
2017-11-23T17:02:49.279Z,15.37
2017-11-23T17:05:22.119Z,14.53
2017-11-23T17:07:55.507Z,14.57
2017-11-23T17:10:29.061Z,15.27
2017-11-23T17:13:02.719Z,13.60
2017-11-23T17:15:36.234Z,12.60
2017-11-23T17:18:09.574Z,14.20
2017-11-23T17:20:36.276Z,13.40
2017-11-23T17:23:02.945Z,14.73
2017-11-23T17:25:29.644Z,15.70
2017-11-23T17:27:57.091Z,19.20
2017-11-23T17:30:23.841Z,21.33
2017-11-23T17:32:50.538Z,28.00
2017-11-23T17:35:17.278Z,19.60
2017-11-23T17:37:43.996Z,18.58
2017-11-23T17:40:11.419Z,18.47
2017-11-23T17:42:38.116Z,18.30
2017-11-23T17:45:04.783Z,17.40
2017-11-23T17:47:31.509Z,17.77
2017-11-23T17:49:58.199Z,17.05
2017-11-23T17:52:24.901Z,15.40
2017-11-23T17:54:51.587Z,16.03
2017-11-23T17:57:18.317Z,15.40
2017-11-23T17:59:45.016Z,14.67
2017-11-23T18:02:11.757Z,16.70
2017-11-23T18:04:38.468Z,16.87
2017-11-23T18:07:05.161Z,15.60
2017-11-23T18:09:31.872Z,16.03
2017-11-23T18:11:59.315Z,16.50
2017-11-23T18:14:25.990Z,16.13
2017-11-23T18:16:52.731Z,16.30
2017-11-23T18:19:19.457Z,17.53
2017-11-23T18:21:46.912Z,16.83
2017-11-23T18:24:13.646Z,18.07
2017-11-23T18:26:40.320Z,18.43
2017-11-23T18:29:07.760Z,19.17
2017-11-23T18:31:35.214Z,18.77
2017-11-23T18:34:01.869Z,19.17
2017-11-23T18:36:29.328Z,19.25
2017-11-23T18:38:56.801Z,20.07
2017-11-23T18:41:24.247Z,19.87
2017-11-23T18:43:51.691Z,21.85
2017-11-23T18:46:18.424Z,19.95
2017-11-23T18:48:45.134Z,20.50
2017-11-23T18:51:11.904Z,19.57
2017-11-23T18:53:38.590Z,18.52
2017-11-23T18:56:06.026Z,20.23
2017-11-23T18:58:32.752Z,20.62
2017-11-23T19:00:59.449Z,19.83
2017-11-23T19:03:26.116Z,20.67
2017-11-23T19:05:52.842Z,19.92
2017-11-23T19:08:19.581Z,20.60
2017-11-23T19:10:46.268Z,18.95
2017-11-23T19:13:12.923Z,20.95
2017-11-23T19:15:39.657Z,21.20
2017-11-23T19:18:06.315Z,19.70
2017-11-23T19:20:33.024Z,22.23
2017-11-23T19:23:00.458Z,22.08
2017-11-23T19:25:27.210Z,21.95
2017-11-23T19:27:53.916Z,21.87
2017-11-23T19:30:20.655Z,21.10
2017-11-23T19:32:47.352Z,20.50
2017-11-23T19:35:14.073Z,21.12
2017-11-23T19:37:40.789Z,20.48
2017-11-23T19:40:08.258Z,20.95
2017-11-23T19:42:34.922Z,21.35
2017-11-23T19:45:01.679Z,20.50
2017-11-23T19:47:28.339Z,20.80
2017-11-23T19:49:55.013Z,21.52
2017-11-23T19:52:22.496Z,19.92
2017-11-23T19:54:49.936Z,22.92
2017-11-23T19:57:16.588Z,22.55
2017-11-23T19:59:43.259Z,23.25
2017-11-23T20:02:09.947Z,24.55
2017-11-23T20:04:36.683Z,24.08
2017-11-23T20:07:03.399Z,24.37
2017-11-23T20:09:30.124Z,24.00
2017-11-23T20:11:57.589Z,25.05
2017-11-23T20:14:24.309Z,23.75
2017-11-23T20:16:50.992Z,24.12
2017-11-23T20:19:17.713Z,24.52
2017-11-23T20:21:45.155Z,24.45
2017-11-23T20:24:11.869Z,22.25
2017-11-23T20:26:38.565Z,21.23
2017-11-23T20:29:06.048Z,22.80
2017-11-23T20:31:32.764Z,25.55
2017-11-23T20:34:00.270Z,21.85
2017-11-23T20:36:27.019Z,23.55
2017-11-23T20:38:53.731Z,21.90
2017-11-23T20:41:20.465Z,22.15
2017-11-23T20:43:47.869Z,21.52
2017-11-23T20:46:14.738Z,21.67
2017-11-23T20:48:41.482Z,21.62
2017-11-23T20:51:08.183Z,21.27
2017-11-23T20:53:34.950Z,20.48
2017-11-23T20:56:01.665Z,18.75
2017-11-23T20:58:28.364Z,22.83
2017-11-23T21:00:55.082Z,20.52
2017-11-23T21:03:21.783Z,20.30
2017-11-23T21:05:48.562Z,21.17
2017-11-23T21:08:15.348Z,20.83
2017-11-23T21:10:42.056Z,23.23
2017-11-23T21:13:08.730Z,20.45
2017-11-23T21:15:35.485Z,20.17
2017-11-23T21:18:02.156Z,19.48
2017-11-23T21:20:28.853Z,22.52
2017-11-23T21:22:55.572Z,20.62
2017-11-23T21:25:22.428Z,19.52
2017-11-23T21:27:49.109Z,19.42
2017-11-23T21:30:16.586Z,19.67
2017-11-23T21:32:43.259Z,19.58
2017-11-23T21:35:11.581Z,16.95
2017-11-23T21:37:39.952Z,17.77
2017-11-23T21:40:08.323Z,18.83
2017-11-23T21:42:36.667Z,16.65
2017-11-23T21:45:05.005Z,16.85
2017-11-23T21:47:31.723Z,16.62
2017-11-23T21:49:58.427Z,15.15
2017-11-23T21:52:25.129Z,16.62
2017-11-23T21:54:51.836Z,16.35
2017-11-23T21:57:18.519Z,14.75
2017-11-23T21:59:46.467Z,14.50
2017-11-23T22:02:14.283Z,14.68
2017-11-23T22:04:41.847Z,15.35
2017-11-23T22:07:09.348Z,15.27
2017-11-23T22:09:36.022Z,15.48
2017-11-23T22:12:02.724Z,15.02
2017-11-23T22:14:29.456Z,14.85
2017-11-23T22:16:56.240Z,16.23
2017-11-23T22:19:22.989Z,14.82
2017-11-23T22:21:49.681Z,15.77
2017-11-23T22:24:17.123Z,16.27
2017-11-23T22:26:43.844Z,16.87
2017-11-23T22:29:10.594Z,16.30
2017-11-23T22:31:37.295Z,14.07
2017-11-23T22:34:04.112Z,15.55
2017-11-23T22:36:32.588Z,16.45
2017-11-23T22:38:59.356Z,15.15
2017-11-23T22:41:26.211Z,15.25
2017-11-23T22:43:53.011Z,16.55
2017-11-23T22:46:19.678Z,15.65
2017-11-23T22:48:46.422Z,15.65
2017-11-23T22:51:13.963Z,15.05
2017-11-23T22:53:40.667Z,15.00
2017-11-23T22:56:07.360Z,13.98
2017-11-23T22:58:34.835Z,14.85
2017-11-23T23:01:02.325Z,15.07
2017-11-23T23:03:29.072Z,15.90
2017-11-23T23:05:55.812Z,14.93
2017-11-23T23:08:22.601Z,13.93
2017-11-23T23:10:49.299Z,14.23
2017-11-23T23:13:15.999Z,14.48
2017-11-23T23:15:43.445Z,15.57
2017-11-23T23:18:10.151Z,15.95
2017-11-23T23:20:36.839Z,13.88
2017-11-23T23:23:03.528Z,14.30
2017-11-23T23:25:30.241Z,13.55
2017-11-23T23:27:57.642Z,14.93
2017-11-23T23:30:24.319Z,15.40
2017-11-23T23:32:51.027Z,14.75
2017-11-23T23:35:17.703Z,17.90
2017-11-23T23:37:44.357Z,16.73
2017-11-23T23:40:11.070Z,17.37
2017-11-23T23:42:37.776Z,16.67
2017-11-23T23:45:04.465Z,16.05
2017-11-23T23:47:31.177Z,16.27
2017-11-23T23:49:57.933Z,18.87
2017-11-23T23:52:24.628Z,18.00
2017-11-23T23:54:51.316Z,16.80
2017-11-23T23:57:18.004Z,17.42
2017-11-23T23:59:44.729Z,18.12
